createdAt,value
2018-04-20T00:00:54.109Z,59.10
2018-04-20T00:03:22.442Z,60.20
2018-04-20T00:05:50.106Z,60.20
2018-04-20T00:08:17.691Z,59.80
2018-04-20T00:10:46.041Z,60.50
2018-04-20T00:13:13.665Z,60.50
2018-04-20T00:15:41.358Z,61.00
2018-04-20T00:18:08.933Z,61.70
2018-04-20T00:20:36.493Z,61.90
2018-04-20T00:23:04.090Z,61.80
2018-04-20T00:25:31.650Z,61.70
2018-04-20T00:27:59.240Z,61.10
2018-04-20T00:30:26.809Z,60.60
2018-04-20T00:32:54.585Z,61.30
2018-04-20T00:35:22.156Z,61.70
2018-04-20T00:37:49.765Z,61.90
2018-04-20T00:40:17.486Z,63.40
2018-04-20T00:42:45.969Z,63.70
2018-04-20T00:45:14.349Z,63.80
2018-04-20T00:47:42.692Z,64.10
2018-04-20T00:50:10.285Z,64.10
2018-04-20T00:52:38.639Z,63.10
2018-04-20T00:55:06.256Z,63.10
2018-04-20T00:57:33.829Z,63.40
2018-04-20T01:00:01.507Z,63.50
2018-04-20T01:02:29.856Z,64.20
2018-04-20T01:04:57.618Z,64.20
2018-04-20T01:07:25.176Z,64.60
2018-04-20T01:09:52.813Z,65.30
2018-04-20T01:12:20.391Z,65.10
2018-04-20T01:14:47.973Z,65.00
2018-04-20T01:17:15.564Z,64.70
2018-04-20T01:19:43.902Z,63.90
2018-04-20T01:22:11.486Z,63.80
2018-04-20T01:24:40.017Z,63.90
2018-04-20T01:27:07.617Z,63.80
2018-04-20T01:29:35.173Z,64.90
2018-04-20T01:32:03.521Z,65.60
2018-04-20T01:34:31.091Z,66.00
2018-04-20T01:36:58.941Z,67.20
2018-04-20T01:39:26.507Z,67.30
2018-04-20T01:41:54.179Z,67.50
2018-04-20T01:44:21.817Z,67.10
2018-04-20T01:46:49.382Z,67.40
2018-04-20T01:49:16.969Z,67.30
2018-04-20T01:51:44.544Z,68.50
2018-04-20T01:54:12.910Z,69.30
2018-04-20T01:56:40.512Z,68.60
2018-04-20T01:59:08.090Z,68.70
2018-04-20T02:01:35.713Z,68.40
2018-04-20T02:04:04.087Z,67.60
2018-04-20T02:06:32.505Z,67.90
2018-04-20T02:09:00.083Z,67.90
2018-04-20T02:11:27.649Z,68.00
2018-04-20T02:13:55.240Z,68.20
2018-04-20T02:16:23.573Z,68.70
2018-04-20T02:18:51.141Z,68.00
2018-04-20T02:21:18.828Z,68.50
2018-04-20T02:23:46.386Z,68.40
2018-04-20T02:26:13.973Z,69.30
2018-04-20T02:28:41.531Z,69.30
2018-04-20T02:31:09.261Z,69.80
2018-04-20T02:33:36.904Z,69.80
2018-04-20T02:36:06.013Z,70.60
2018-04-20T02:38:33.652Z,70.60
2018-04-20T02:41:01.221Z,70.40
2018-04-20T02:43:28.834Z,70.50
2018-04-20T02:45:56.406Z,70.50
2018-04-20T02:48:23.997Z,70.40
2018-04-20T02:50:51.556Z,70.70
2018-04-20T02:53:19.153Z,71.70
2018-04-20T02:55:47.480Z,71.60
2018-04-20T02:58:15.070Z,71.60
2018-04-20T03:00:43.398Z,71.30
2018-04-20T03:03:10.996Z,71.20
2018-04-20T03:05:38.601Z,71.40
2018-04-20T03:08:06.229Z,72.00
2018-04-20T03:10:34.624Z,72.20
2018-04-20T03:13:02.257Z,72.20
2018-04-20T03:15:29.817Z,72.70
2018-04-20T03:17:57.433Z,72.90
2018-04-20T03:20:25.016Z,72.30
2018-04-20T03:22:52.605Z,72.20
2018-04-20T03:25:20.276Z,72.70
2018-04-20T03:27:47.839Z,73.20
2018-04-20T03:30:15.473Z,73.00
2018-04-20T03:32:43.288Z,73.80
2018-04-20T03:35:10.881Z,73.70
2018-04-20T03:37:39.202Z,73.60
2018-04-20T03:40:06.793Z,73.60
2018-04-20T03:42:34.483Z,73.60
2018-04-20T03:45:02.201Z,73.50
2018-04-20T03:47:29.917Z,73.50
2018-04-20T03:49:57.571Z,73.60
2018-04-20T03:52:25.134Z,73.60
2018-04-20T03:54:52.754Z,71.90
2018-04-20T03:57:20.321Z,70.80
2018-04-20T03:59:47.896Z,71.00
2018-04-20T04:02:15.460Z,71.40
2018-04-20T04:04:43.918Z,71.80
2018-04-20T04:07:11.518Z,71.80
2018-04-20T04:09:39.881Z,73.10
2018-04-20T04:12:07.484Z,73.10
2018-04-20T04:14:35.176Z,73.60
2018-04-20T04:17:14.782Z,74.20
2018-04-20T04:23:01.012Z,74.70
2018-04-20T04:25:40.453Z,78.00
2018-04-20T04:28:28.510Z,74.90
2018-04-20T04:30:56.080Z,75.50
2018-04-20T04:33:23.704Z,75.50
2018-04-20T04:35:51.277Z,74.80
2018-04-20T04:38:18.869Z,74.60
2018-04-20T04:40:46.565Z,74.70
2018-04-20T04:43:14.228Z,74.80
2018-04-20T04:45:41.789Z,74.40
2018-04-20T04:48:09.433Z,74.50
2018-04-20T04:50:37.831Z,74.10
2018-04-20T04:53:05.457Z,74.10
2018-04-20T04:55:33.941Z,73.70
2018-04-20T04:58:02.324Z,73.50
2018-04-20T05:00:30.733Z,74.00
2018-04-20T05:02:58.321Z,74.00
2018-04-20T05:05:26.053Z,73.60
2018-04-20T05:07:53.609Z,73.30
2018-04-20T05:10:21.350Z,73.50
2018-04-20T05:12:49.114Z,73.20
2018-04-20T05:15:16.753Z,73.20
2018-04-20T05:17:45.084Z,73.90
2018-04-20T05:20:12.739Z,73.80
2018-04-20T05:22:40.329Z,74.70
2018-04-20T05:25:07.917Z,74.90
2018-04-20T05:27:36.249Z,74.30
2018-04-20T05:30:03.952Z,74.30
2018-04-20T05:32:32.285Z,74.60
2018-04-20T05:34:59.934Z,74.60
2018-04-20T05:37:27.510Z,73.30
2018-04-20T05:39:55.209Z,73.50
2018-04-20T05:42:23.549Z,73.20
2018-04-20T05:44:51.081Z,73.10
2018-04-20T05:47:18.682Z,72.30
2018-04-20T05:49:46.242Z,70.30
2018-04-20T05:52:13.907Z,70.20
2018-04-20T05:54:41.542Z,70.00
2018-04-20T05:57:09.133Z,70.60
2018-04-20T05:59:37.473Z,70.60
2018-04-20T06:02:06.797Z,70.60
2018-04-20T06:04:34.365Z,69.50
2018-04-20T06:07:02.735Z,69.20
2018-04-20T06:09:30.465Z,69.10
2018-04-20T06:11:58.045Z,68.90
2018-04-20T06:14:25.609Z,67.70
2018-04-20T06:16:53.201Z,68.10
2018-04-20T06:19:20.791Z,69.30
2018-04-20T06:21:48.365Z,68.40
2018-04-20T06:24:16.089Z,69.30
2018-04-20T06:26:43.657Z,67.80
2018-04-20T06:29:11.294Z,68.00
2018-04-20T06:31:39.644Z,68.00
2018-04-20T06:34:07.317Z,67.90
2018-04-20T06:36:35.797Z,64.70
2018-04-20T06:39:04.123Z,64.70
2018-04-20T06:41:31.879Z,64.60
2018-04-20T06:43:59.450Z,65.90
2018-04-20T06:46:27.149Z,61.30
2018-04-20T06:48:54.757Z,60.90
2018-04-20T06:51:22.423Z,61.10
2018-04-20T06:53:49.981Z,60.90
2018-04-20T06:56:17.584Z,59.40
2018-04-20T06:58:45.143Z,61.40
2018-04-20T07:01:12.729Z,59.80
2018-04-20T07:03:40.297Z,58.50
2018-04-20T07:06:08.097Z,57.50
2018-04-20T07:08:35.667Z,57.30
2018-04-20T07:11:03.292Z,56.70
2018-04-20T07:13:30.870Z,55.60
2018-04-20T07:15:58.470Z,55.40
2018-04-20T07:18:26.842Z,52.30
2018-04-20T07:20:54.607Z,52.20
2018-04-20T07:23:22.245Z,51.50
2018-04-20T07:25:49.849Z,51.70
2018-04-20T07:28:17.444Z,50.20
2018-04-20T07:30:45.093Z,50.70
2018-04-20T07:33:12.839Z,49.30
2018-04-20T07:35:40.503Z,50.10
2018-04-20T07:38:08.873Z,48.00
2018-04-20T07:40:36.606Z,48.00
2018-04-20T07:43:04.197Z,49.00
2018-04-20T07:45:31.845Z,48.20
2018-04-20T07:48:00.226Z,47.00
2018-04-20T07:50:28.760Z,46.50
2018-04-20T07:52:56.365Z,46.40
2018-04-20T07:55:24.788Z,46.00
2018-04-20T07:57:52.378Z,46.00
2018-04-20T08:00:19.996Z,46.20
2018-04-20T08:02:47.692Z,44.60
2018-04-20T08:05:15.282Z,42.70
2018-04-20T08:07:43.651Z,45.30
2018-04-20T08:10:12.001Z,43.50
2018-04-20T08:12:39.618Z,43.50
2018-04-20T08:15:07.208Z,44.60
2018-04-20T08:17:34.788Z,45.40
2018-04-20T08:20:02.391Z,44.50
2018-04-20T08:22:29.995Z,43.20
2018-04-20T08:24:57.572Z,44.10
2018-04-20T08:27:25.949Z,42.60
2018-04-20T08:29:54.285Z,42.70
2018-04-20T08:32:21.881Z,42.50
2018-04-20T08:34:49.468Z,42.70
2018-04-20T08:37:17.081Z,43.60
2018-04-20T08:39:44.713Z,43.00
2018-04-20T08:42:12.463Z,42.40
2018-04-20T08:44:40.049Z,41.30
2018-04-20T08:47:07.714Z,41.80
2018-04-20T08:49:35.319Z,40.70
2018-04-20T08:52:03.853Z,41.80
2018-04-20T08:54:31.546Z,41.80
2018-04-20T08:56:59.972Z,39.50
2018-04-20T08:59:27.589Z,39.00
2018-04-20T09:01:55.956Z,40.60
2018-04-20T09:04:23.607Z,39.90
2018-04-20T09:06:51.165Z,40.90
2018-04-20T09:09:18.774Z,42.70
2018-04-20T09:11:46.346Z,42.20
2018-04-20T09:14:14.110Z,39.70
2018-04-20T09:16:41.666Z,39.70
2018-04-20T09:19:09.241Z,41.60
2018-04-20T09:21:36.812Z,39.80
2018-04-20T09:24:04.685Z,39.30
2018-04-20T09:26:32.248Z,40.40
2018-04-20T09:28:59.837Z,40.10
2018-04-20T09:31:27.430Z,41.30
2018-04-20T09:33:55.003Z,37.00
2018-04-20T09:36:22.694Z,40.20
2018-04-20T09:38:51.089Z,38.70
2018-04-20T09:41:19.428Z,38.80
2018-04-20T09:43:47.015Z,38.70
2018-04-20T09:46:15.361Z,38.70
2018-04-20T09:48:43.757Z,38.00
2018-04-20T09:51:11.366Z,37.90
2018-04-20T09:53:38.954Z,36.60
2018-04-20T09:56:06.595Z,39.20
2018-04-20T09:58:34.214Z,36.40
2018-04-20T10:01:10.401Z,36.30
2018-04-20T10:03:43.907Z,34.50
2018-04-20T10:06:11.654Z,32.90
2018-04-20T10:08:39.217Z,33.10
2018-04-20T10:11:06.773Z,35.90
2018-04-20T10:13:34.365Z,35.80
2018-04-20T10:16:02.073Z,37.10
2018-04-20T10:18:30.437Z,38.60
2018-04-20T10:20:58.801Z,36.30
2018-04-20T10:23:27.907Z,35.20
2018-04-20T10:25:56.256Z,34.20
2018-04-20T10:28:23.846Z,34.20
2018-04-20T10:30:52.243Z,33.80
2018-04-20T10:33:19.839Z,33.80
2018-04-20T10:35:47.421Z,34.30
2018-04-20T10:38:15.042Z,33.90
2018-04-20T10:40:42.748Z,33.30
2018-04-20T10:43:10.356Z,34.80
2018-04-20T10:45:37.916Z,34.90
2018-04-20T10:48:05.509Z,32.30
2018-04-20T10:50:33.077Z,32.80
2018-04-20T10:53:02.282Z,33.40
2018-04-20T10:55:30.098Z,33.30
2018-04-20T10:57:57.665Z,33.60
2018-04-20T11:00:25.274Z,35.30
2018-04-20T11:02:53.672Z,29.70
2018-04-20T11:05:21.301Z,29.60
2018-04-20T11:07:48.896Z,29.30
2018-04-20T11:10:16.634Z,30.10
2018-04-20T11:12:44.960Z,29.20
2018-04-20T11:15:12.561Z,29.20
2018-04-20T11:17:40.884Z,30.80
2018-04-20T11:20:08.498Z,30.10
2018-04-20T11:22:36.860Z,30.40
2018-04-20T11:25:05.254Z,30.00
2018-04-20T11:27:33.596Z,29.00
2018-04-20T11:30:01.376Z,28.90
2018-04-20T11:32:28.997Z,30.60
2018-04-20T11:34:56.597Z,30.20
2018-04-20T11:37:24.182Z,30.20
2018-04-20T11:39:52.539Z,31.80
2018-04-20T11:42:20.901Z,30.00
2018-04-20T11:44:48.574Z,30.20
2018-04-20T11:47:17.035Z,30.30
2018-04-20T11:49:44.657Z,30.20
2018-04-20T11:52:12.271Z,31.30
2018-04-20T11:54:39.879Z,30.90
2018-04-20T11:57:07.473Z,31.50
2018-04-20T11:59:35.109Z,33.50
2018-04-20T12:02:02.699Z,32.50
2018-04-20T12:04:30.258Z,32.60
2018-04-20T12:06:57.837Z,31.30
2018-04-20T12:09:26.260Z,32.50
2018-04-20T12:11:53.865Z,32.50
2018-04-20T12:14:22.193Z,33.00
2018-04-20T12:16:49.777Z,32.90
2018-04-20T12:19:17.345Z,35.70
2018-04-20T12:21:45.021Z,33.80
2018-04-20T12:24:12.831Z,33.90
2018-04-20T12:26:40.438Z,36.90
2018-04-20T12:29:08.178Z,35.70
2018-04-20T12:31:35.793Z,34.30
2018-04-20T12:34:03.343Z,35.20
2018-04-20T12:36:31.711Z,35.20
2018-04-20T12:39:00.059Z,34.40
2018-04-20T12:41:27.791Z,34.30
2018-04-20T12:43:55.538Z,34.50
2018-04-20T12:46:23.091Z,36.10
2018-04-20T12:48:50.802Z,34.20
2018-04-20T12:51:18.516Z,34.70
2018-04-20T12:53:46.856Z,34.30
2018-04-20T12:56:14.459Z,34.20
2018-04-20T12:58:42.101Z,35.10
2018-04-20T13:01:10.512Z,33.70
2018-04-20T13:03:38.078Z,33.60
2018-04-20T13:06:05.662Z,34.30
2018-04-20T13:08:33.251Z,32.40
2018-04-20T13:11:01.597Z,35.00
2018-04-20T13:13:29.161Z,34.90
2018-04-20T13:15:56.807Z,35.30
2018-04-20T13:18:24.336Z,34.00
2018-04-20T13:20:51.901Z,34.60
2018-04-20T13:23:19.469Z,35.00
2018-04-20T13:25:47.115Z,36.10
2018-04-20T13:28:14.822Z,37.30
2018-04-20T13:30:42.546Z,36.40
2018-04-20T13:33:10.100Z,35.80
2018-04-20T13:35:37.717Z,33.90
2018-04-20T13:38:06.136Z,34.20
2018-04-20T13:40:33.856Z,34.20
2018-04-20T13:43:02.309Z,34.00
2018-04-20T13:45:30.026Z,34.00
2018-04-20T13:47:57.601Z,33.50
2018-04-20T13:50:25.201Z,34.00
2018-04-20T13:52:52.759Z,34.60
2018-04-20T13:55:20.377Z,36.70
2018-04-20T13:57:48.117Z,34.30
2018-04-20T14:00:15.729Z,34.70
2018-04-20T14:02:43.325Z,34.60
2018-04-20T14:05:11.654Z,34.80
2018-04-20T14:07:39.246Z,34.70
2018-04-20T14:10:07.737Z,36.30
2018-04-20T14:12:36.089Z,35.50
2018-04-20T14:15:03.670Z,35.40
2018-04-20T14:17:32.032Z,34.70
2018-04-20T14:20:00.393Z,35.10
2018-04-20T14:22:27.967Z,35.00
2018-04-20T14:24:55.643Z,34.10
2018-04-20T14:27:23.982Z,34.60
2018-04-20T14:29:51.580Z,34.60
2018-04-20T14:32:19.910Z,33.90
2018-04-20T14:34:47.501Z,33.90
2018-04-20T14:37:15.980Z,32.90
2018-04-20T14:39:44.426Z,34.80
2018-04-20T14:42:12.145Z,34.00
2018-04-20T14:44:39.769Z,33.60
2018-04-20T14:47:07.371Z,33.50
2018-04-20T14:49:34.973Z,32.30
2018-04-20T14:52:02.574Z,32.90
2018-04-20T14:54:30.957Z,33.10
2018-04-20T14:56:58.701Z,33.00
2018-04-20T14:59:27.039Z,34.80
2018-04-20T15:01:54.626Z,34.80
2018-04-20T15:04:22.221Z,33.00
2018-04-20T15:06:49.840Z,34.00
2018-04-20T15:09:17.407Z,33.80
2018-04-20T15:11:45.750Z,34.00
2018-04-20T15:14:13.369Z,33.90
2018-04-20T15:16:40.969Z,33.40
2018-04-20T15:19:08.551Z,33.20
2018-04-20T15:21:37.048Z,35.00
2018-04-20T15:24:05.572Z,35.00
2018-04-20T15:26:33.129Z,35.00
2018-04-20T15:29:00.701Z,35.20
2018-04-20T15:31:28.407Z,35.10
2018-04-20T15:33:56.855Z,35.20
2018-04-20T15:36:24.453Z,35.20
2018-04-20T15:38:52.772Z,35.60
2018-04-20T15:41:20.565Z,35.40
2018-04-20T15:43:48.147Z,34.40
2018-04-20T15:46:16.524Z,34.60
2018-04-20T15:48:44.080Z,34.60
2018-04-20T15:51:12.460Z,34.20
2018-04-20T15:53:40.788Z,33.30
2018-04-20T15:56:08.382Z,33.20
2018-04-20T15:58:36.047Z,34.40
2018-04-20T16:01:04.410Z,34.90
2018-04-20T16:03:31.979Z,34.80
2018-04-20T16:05:59.646Z,33.20
2018-04-20T16:08:27.985Z,34.00
2018-04-20T16:10:55.610Z,34.00
2018-04-20T16:13:23.223Z,33.60
2018-04-20T16:15:50.824Z,33.60
2018-04-20T16:18:18.441Z,33.70
2018-04-20T16:20:46.005Z,33.10
2018-04-20T16:23:13.630Z,33.50
2018-04-20T16:25:41.193Z,33.80
2018-04-20T16:28:08.810Z,33.80
2018-04-20T16:30:36.468Z,34.20
2018-04-20T16:33:04.834Z,34.40
2018-04-20T16:35:33.166Z,34.40
2018-04-20T16:38:00.871Z,34.30
2018-04-20T16:40:29.198Z,34.90
2018-04-20T16:42:56.962Z,34.80
2018-04-20T16:45:24.537Z,35.40
2018-04-20T16:47:52.130Z,36.30
2018-04-20T16:50:20.504Z,36.10
2018-04-20T16:52:48.970Z,35.40
2018-04-20T16:55:16.569Z,35.40
2018-04-20T16:57:44.147Z,35.70
2018-04-20T17:00:11.772Z,37.00
2018-04-20T17:02:40.230Z,36.00
2018-04-20T17:05:07.957Z,35.90
2018-04-20T17:07:35.550Z,35.60
2018-04-20T17:10:03.125Z,36.60
2018-04-20T17:12:31.556Z,37.50
2018-04-20T17:14:59.124Z,37.50
2018-04-20T17:17:31.623Z,37.80
2018-04-20T17:19:59.972Z,39.10
2018-04-20T17:22:27.584Z,39.10
2018-04-20T17:24:55.342Z,39.30
2018-04-20T17:27:23.730Z,39.50
2018-04-20T17:29:51.291Z,39.40
2018-04-20T17:32:18.921Z,40.00
2018-04-20T17:34:47.288Z,42.30
2018-04-20T17:37:15.036Z,42.30
2018-04-20T17:39:43.385Z,40.90
2018-04-20T17:42:10.994Z,40.40
2018-04-20T17:44:39.402Z,42.40
2018-04-20T17:47:07.113Z,41.90
2018-04-20T17:49:34.704Z,41.20
2018-04-20T17:52:03.063Z,40.80
2018-04-20T17:54:30.621Z,40.80
2018-04-20T17:56:58.214Z,40.80
2018-04-20T17:59:25.847Z,41.40
2018-04-20T18:01:54.222Z,43.00
2018-04-20T18:04:22.665Z,43.80
2018-04-20T18:06:50.225Z,43.20
2018-04-20T18:09:17.846Z,44.00
2018-04-20T18:11:45.466Z,44.20
2018-04-20T18:14:13.056Z,44.90
2018-04-20T18:16:41.403Z,45.40
2018-04-20T18:19:09.769Z,45.00
2018-04-20T18:21:37.516Z,44.90
2018-04-20T18:24:05.126Z,45.30
2018-04-20T18:26:32.717Z,46.30
2018-04-20T18:29:00.321Z,48.30
2018-04-20T18:31:27.940Z,49.20
2018-04-20T18:33:55.586Z,48.10
2018-04-20T18:36:23.163Z,48.90
2018-04-20T18:38:50.881Z,46.30
2018-04-20T18:41:19.206Z,46.60
2018-04-20T18:43:46.773Z,46.50
2018-04-20T18:46:14.359Z,46.30
2018-04-20T18:48:41.961Z,47.00
2018-04-20T18:51:09.561Z,46.60
2018-04-20T18:53:37.254Z,48.60
2018-04-20T18:56:05.620Z,49.20
2018-04-20T18:58:34.053Z,47.60
2018-04-20T19:01:01.902Z,47.50
2018-04-20T19:03:29.571Z,47.80
2018-04-20T19:05:57.174Z,47.40
2018-04-20T19:08:24.765Z,48.00
2018-04-20T19:10:52.489Z,48.00
2018-04-20T19:13:20.083Z,48.90
2018-04-20T19:15:47.826Z,49.00
2018-04-20T19:18:15.599Z,50.00
2018-04-20T19:20:43.963Z,49.20
2018-04-20T19:23:11.621Z,49.20
2018-04-20T19:25:40.049Z,49.80
2018-04-20T19:28:07.653Z,49.50
2018-04-20T19:30:35.217Z,49.70
2018-04-20T19:33:02.881Z,50.20
2018-04-20T19:35:31.246Z,50.40
2018-04-20T19:37:58.965Z,50.30
2018-04-20T19:40:26.542Z,50.10
2018-04-20T19:42:54.209Z,51.10
2018-04-20T19:45:21.938Z,49.50
2018-04-20T19:47:49.542Z,50.20
2018-04-20T19:50:17.222Z,49.70
2018-04-20T19:52:44.874Z,49.40
2018-04-20T19:55:12.450Z,49.40
2018-04-20T19:57:40.835Z,48.70
2018-04-20T20:00:08.445Z,48.70
2018-04-20T20:02:36.006Z,48.50
2018-04-20T20:05:03.622Z,48.20
2018-04-20T20:07:31.235Z,48.20
2018-04-20T20:09:58.829Z,48.60
2018-04-20T20:12:27.354Z,48.70
2018-04-20T20:14:54.941Z,48.60
2018-04-20T20:17:22.522Z,47.70
2018-04-20T20:19:50.901Z,47.50
2018-04-20T20:22:19.245Z,47.30
2018-04-20T20:24:47.598Z,47.20
2018-04-20T20:27:15.165Z,47.00
2018-04-20T20:29:42.859Z,47.40
2018-04-20T20:32:10.435Z,47.50
2018-04-20T20:34:38.770Z,47.40
2018-04-20T20:37:06.311Z,47.40
2018-04-20T20:39:33.909Z,48.60
2018-04-20T20:42:01.477Z,50.00
2018-04-20T20:44:29.970Z,52.10
2018-04-20T20:46:58.313Z,53.20
2018-04-20T20:49:26.641Z,53.50
2018-04-20T20:51:54.369Z,53.40
2018-04-20T20:54:22.790Z,54.30
2018-04-20T20:56:50.377Z,54.10
2018-04-20T20:59:17.956Z,54.50
2018-04-20T21:01:45.721Z,54.70
2018-04-20T21:04:13.296Z,55.10
2018-04-20T21:06:41.678Z,55.80
2018-04-20T21:09:10.158Z,56.50
2018-04-20T21:11:37.746Z,56.50
2018-04-20T21:14:05.348Z,57.10
2018-04-20T21:16:33.096Z,56.80
2018-04-20T21:19:00.674Z,56.70
2018-04-20T21:21:28.318Z,56.80
2018-04-20T21:23:55.898Z,57.00
2018-04-20T21:26:24.262Z,57.00
2018-04-20T21:28:51.881Z,56.90
2018-04-20T21:31:19.627Z,57.50
2018-04-20T21:33:47.293Z,58.40
2018-04-20T21:36:14.968Z,57.80
2018-04-20T21:38:42.601Z,57.20
2018-04-20T21:41:10.355Z,57.00
2018-04-20T21:43:38.726Z,57.70
2018-04-20T21:46:07.094Z,57.70
2018-04-20T21:48:35.473Z,58.30
2018-04-20T21:51:03.026Z,58.30
2018-04-20T21:53:30.607Z,58.40
2018-04-20T21:55:58.945Z,57.00
2018-04-20T21:58:26.524Z,56.90
2018-04-20T22:00:54.884Z,58.30
2018-04-20T22:03:22.447Z,58.20
2018-04-20T22:05:50.036Z,59.00
2018-04-20T22:08:17.633Z,58.60
2018-04-20T22:10:45.240Z,59.10
2018-04-20T22:13:13.600Z,59.80
2018-04-20T22:15:41.206Z,59.70
2018-04-20T22:18:08.826Z,60.50
2018-04-20T22:20:36.453Z,60.20
2018-04-20T22:23:04.013Z,60.30
2018-04-20T22:25:31.813Z,61.50
2018-04-20T22:28:00.165Z,61.40
2018-04-20T22:30:27.754Z,61.40
2018-04-20T22:32:56.125Z,61.80
2018-04-20T22:35:23.721Z,61.70
2018-04-20T22:37:51.447Z,63.00
2018-04-20T22:40:19.868Z,62.20
2018-04-20T22:42:47.481Z,62.20
2018-04-20T22:45:15.087Z,63.00
2018-04-20T22:47:42.692Z,62.90
2018-04-20T22:50:10.402Z,62.80
2018-04-20T22:52:38.009Z,63.60
2018-04-20T22:55:05.682Z,62.90
2018-04-20T22:57:33.436Z,62.00
2018-04-20T23:00:01.049Z,62.70
2018-04-20T23:02:28.637Z,62.80
2018-04-20T23:04:56.322Z,62.20
2018-04-20T23:07:23.989Z,62.50
2018-04-20T23:09:52.349Z,64.30
2018-04-20T23:12:19.996Z,64.30
2018-04-20T23:14:47.738Z,64.50
2018-04-20T23:17:15.290Z,64.30
2018-04-20T23:19:42.889Z,64.50
2018-04-20T23:22:10.493Z,65.00
2018-04-20T23:24:38.170Z,65.10
2018-04-20T23:27:05.776Z,66.30
2018-04-20T23:29:33.329Z,65.00
2018-04-20T23:32:00.957Z,64.80
2018-04-20T23:34:28.517Z,66.40
2018-04-20T23:36:56.110Z,66.50
2018-04-20T23:39:23.666Z,65.30
2018-04-20T23:41:51.382Z,64.20
2018-04-20T23:44:18.941Z,65.00
2018-04-20T23:46:46.521Z,65.30
2018-04-20T23:49:14.166Z,65.10
2018-04-20T23:51:41.830Z,65.80
2018-04-20T23:54:09.465Z,67.40
2018-04-20T23:56:37.030Z,66.60
2018-04-20T23:59:04.718Z,67.20
